createdAt,value
2018-03-28T00:02:08.442Z,11.53
2018-03-28T00:04:36.877Z,12.47
2018-03-28T00:07:05.370Z,11.97
2018-03-28T00:09:33.882Z,11.27
2018-03-28T00:12:02.342Z,11.87
2018-03-28T00:14:30.941Z,11.40
2018-03-28T00:16:59.358Z,10.77
2018-03-28T00:19:27.996Z,11.37
2018-03-28T00:21:56.436Z,11.63
2018-03-28T00:24:24.885Z,12.00
2018-03-28T00:26:53.495Z,11.57
2018-03-28T00:29:22.045Z,13.10
2018-03-28T00:31:50.915Z,12.13
2018-03-28T00:34:20.526Z,12.70
2018-03-28T00:36:49.887Z,12.83
2018-03-28T00:39:19.295Z,12.80
2018-03-28T00:41:48.083Z,12.13
2018-03-28T00:44:16.751Z,12.87
2018-03-28T00:46:45.326Z,11.60
2018-03-28T00:49:14.059Z,11.83
2018-03-28T00:51:42.507Z,12.07
2018-03-28T00:54:11.008Z,13.03
2018-03-28T00:56:39.454Z,13.13
2018-03-28T00:59:07.947Z,12.83
2018-03-28T01:01:37.127Z,12.83
2018-03-28T01:04:05.766Z,12.73
2018-03-28T01:06:34.499Z,12.03
2018-03-28T01:09:03.290Z,13.27
2018-03-28T01:11:32.315Z,13.07
2018-03-28T01:14:04.575Z,12.03
2018-03-28T01:16:33.295Z,12.50
2018-03-28T01:19:01.771Z,11.77
2018-03-28T01:21:30.183Z,13.60
2018-03-28T01:23:58.594Z,13.10
2018-03-28T01:26:27.306Z,13.17
2018-03-28T01:29:00.019Z,13.47
2018-03-28T01:31:28.512Z,13.40
2018-03-28T01:33:57.150Z,13.63
2018-03-28T01:36:25.690Z,13.33
2018-03-28T01:38:54.275Z,13.77
2018-03-28T01:41:23.043Z,13.50
2018-03-28T01:43:51.642Z,13.83
2018-03-28T01:46:20.227Z,13.53
2018-03-28T01:48:50.805Z,14.63
2018-03-28T01:51:19.239Z,14.60
2018-03-28T01:53:48.174Z,14.67
2018-03-28T01:56:17.504Z,14.50
2018-03-28T01:58:46.329Z,14.40
2018-03-28T02:01:17.962Z,15.67
2018-03-28T02:03:46.577Z,14.77
2018-03-28T02:06:14.962Z,15.83
2018-03-28T02:08:43.502Z,15.53
2018-03-28T02:11:11.999Z,15.13
2018-03-28T02:13:40.777Z,15.33
2018-03-28T02:16:10.232Z,14.83
2018-03-28T02:18:38.938Z,16.17
2018-03-28T02:21:07.490Z,16.53
2018-03-28T02:23:37.333Z,17.03
2018-03-28T02:26:06.031Z,15.47
2018-03-28T02:28:35.366Z,18.50
2018-03-28T02:31:04.477Z,16.70
2018-03-28T02:33:33.121Z,17.40
2018-03-28T02:36:02.323Z,17.67
2018-03-28T02:38:30.906Z,17.50
2018-03-28T02:41:00.149Z,16.90
2018-03-28T02:43:28.738Z,16.70
2018-03-28T02:45:57.460Z,17.30
2018-03-28T02:48:26.848Z,18.30
2018-03-28T02:50:55.293Z,18.23
2018-03-28T02:53:23.782Z,17.80
2018-03-28T02:55:52.292Z,18.33
2018-03-28T02:58:20.771Z,18.40
2018-03-28T03:00:52.155Z,19.00
2018-03-28T03:03:21.272Z,18.73
2018-03-28T03:05:49.964Z,19.40
2018-03-28T03:08:18.415Z,19.60
2018-03-28T03:10:47.163Z,19.10
2018-03-28T03:13:15.886Z,19.13
2018-03-28T03:15:44.601Z,19.40
2018-03-28T03:18:13.438Z,19.27
2018-03-28T03:20:43.800Z,20.00
2018-03-28T03:23:12.544Z,19.80
2018-03-28T03:25:41.821Z,21.93
2018-03-28T03:28:12.518Z,23.10
2018-03-28T03:30:43.184Z,21.03
2018-03-28T03:33:11.778Z,20.83
2018-03-28T03:35:42.073Z,22.00
2018-03-28T03:38:11.344Z,19.73
2018-03-28T03:40:40.026Z,23.07
2018-03-28T03:43:09.002Z,21.27
2018-03-28T03:45:39.190Z,20.50
2018-03-28T03:48:07.572Z,22.03
2018-03-28T03:50:36.270Z,21.33
2018-03-28T03:53:04.795Z,22.83
2018-03-28T03:55:34.354Z,21.90
2018-03-28T03:58:03.003Z,22.90
2018-03-28T04:00:31.551Z,22.23
2018-03-28T04:02:59.989Z,22.10
2018-03-28T04:05:28.507Z,24.33
2018-03-28T04:07:56.982Z,24.00
2018-03-28T04:10:25.462Z,24.00
2018-03-28T04:12:53.987Z,25.90
2018-03-28T04:15:22.527Z,24.87
2018-03-28T04:17:51.076Z,23.80
2018-03-28T04:20:19.667Z,25.57
2018-03-28T04:22:48.137Z,24.17
2018-03-28T04:25:16.735Z,25.37
2018-03-28T04:27:45.300Z,24.73
2018-03-28T04:30:13.815Z,24.00
2018-03-28T04:32:42.212Z,25.40
2018-03-28T04:35:10.855Z,25.30
2018-03-28T04:37:40.057Z,24.37
2018-03-28T04:40:10.425Z,26.50
2018-03-28T04:42:39.043Z,26.30
2018-03-28T04:45:09.191Z,25.27
2018-03-28T04:47:37.663Z,25.77
2018-03-28T04:50:06.079Z,25.83
2018-03-28T04:52:35.433Z,26.23
2018-03-28T04:55:04.398Z,27.10
2018-03-28T04:57:33.512Z,25.20
2018-03-28T05:00:02.223Z,25.60
2018-03-28T05:02:30.941Z,26.87
2018-03-28T05:04:59.827Z,26.23
2018-03-28T05:07:29.116Z,27.67
2018-03-28T05:09:58.682Z,26.40
2018-03-28T05:12:28.318Z,27.00
2018-03-28T05:14:57.986Z,28.53
2018-03-28T05:17:26.636Z,28.83
2018-03-28T05:19:55.540Z,27.47
2018-03-28T05:22:24.643Z,26.63
2018-03-28T05:24:53.320Z,29.00
2018-03-28T05:27:21.867Z,26.57
2018-03-28T05:29:50.832Z,30.40
2018-03-28T05:32:19.247Z,28.40
2018-03-28T05:34:48.390Z,31.17
2018-03-28T05:37:17.509Z,28.50
2018-03-28T05:39:46.541Z,28.80
2018-03-28T05:42:15.794Z,30.43
2018-03-28T05:44:44.939Z,31.30
2018-03-28T05:47:14.012Z,30.60
2018-03-28T05:49:42.827Z,31.50
2018-03-28T05:52:11.777Z,33.47
2018-03-28T05:54:41.171Z,33.20
2018-03-28T05:57:10.060Z,32.10
2018-03-28T05:59:39.060Z,33.90
2018-03-28T06:02:07.653Z,33.10
2018-03-28T06:04:36.387Z,36.27
2018-03-28T06:07:04.891Z,36.13
2018-03-28T06:09:33.408Z,38.20
2018-03-28T06:12:01.816Z,40.53
2018-03-28T06:14:30.339Z,40.03
2018-03-28T06:16:58.811Z,39.30
2018-03-28T06:19:27.258Z,43.53
2018-03-28T06:21:55.791Z,44.63
2018-03-28T06:24:24.180Z,44.87
2018-03-28T06:26:52.593Z,45.73
2018-03-28T06:29:20.988Z,47.57
2018-03-28T06:31:49.402Z,48.50
2018-03-28T06:34:17.787Z,47.90
2018-03-28T06:36:46.175Z,47.97
2018-03-28T06:39:14.706Z,45.13
2018-03-28T06:41:43.348Z,51.30
2018-03-28T06:44:11.855Z,45.80
2018-03-28T06:46:40.259Z,52.07
2018-03-28T06:49:08.785Z,49.70
2018-03-28T06:51:37.205Z,53.13
2018-03-28T06:54:06.040Z,52.97
2018-03-28T06:56:34.845Z,51.43
2018-03-28T06:59:03.766Z,52.73
2018-03-28T07:01:32.167Z,53.57
2018-03-28T07:04:00.627Z,52.63
2018-03-28T07:06:29.992Z,52.80
2018-03-28T07:08:58.939Z,52.37
2018-03-28T07:11:27.778Z,52.30
2018-03-28T07:13:56.964Z,53.30
2018-03-28T07:16:26.578Z,50.57
2018-03-28T07:18:55.334Z,52.47
2018-03-28T07:21:24.238Z,49.03
2018-03-28T07:23:53.949Z,49.50
2018-03-28T07:26:23.556Z,51.10
2018-03-28T07:28:52.639Z,54.20
2018-03-28T07:31:21.633Z,51.50
2018-03-28T07:33:51.804Z,56.87
2018-03-28T07:36:21.484Z,56.60
2018-03-28T07:38:49.926Z,56.27
2018-03-28T07:41:18.391Z,55.97
2018-03-28T07:43:46.925Z,54.63
2018-03-28T07:46:15.315Z,58.67
2018-03-28T07:48:43.690Z,55.60
2018-03-28T07:51:15.491Z,58.60
2018-03-28T07:53:44.284Z,60.10
2018-03-28T07:56:23.418Z,61.00
2018-03-28T07:58:52.916Z,62.73
2018-03-28T08:01:21.585Z,66.70
2018-03-28T08:03:50.069Z,61.70
2018-03-28T08:06:18.601Z,65.67
2018-03-28T08:08:47.460Z,63.20
2018-03-28T08:11:15.959Z,66.07
2018-03-28T08:13:44.570Z,67.80
2018-03-28T08:16:13.041Z,69.70
2018-03-28T08:18:41.547Z,69.07
2018-03-28T08:21:10.031Z,66.80
2018-03-28T08:23:38.791Z,67.27
2018-03-28T08:26:07.386Z,69.17
2018-03-28T08:28:35.866Z,65.90
2018-03-28T08:31:04.545Z,68.63
2018-03-28T08:33:33.027Z,67.37
2018-03-28T08:36:01.844Z,67.80
2018-03-28T08:38:30.317Z,70.53
2018-03-28T08:40:58.793Z,69.60
2018-03-28T08:43:27.265Z,71.03
2018-03-28T08:45:55.772Z,71.40
2018-03-28T08:48:24.259Z,67.57
2018-03-28T08:50:52.940Z,70.00
2018-03-28T08:53:21.426Z,67.70
2018-03-28T08:55:50.223Z,73.20
2018-03-28T08:58:18.977Z,71.27
2018-03-28T09:00:47.613Z,71.67
2018-03-28T09:03:16.102Z,69.17
2018-03-28T09:05:44.578Z,68.60
2018-03-28T09:08:13.107Z,69.30
2018-03-28T09:10:41.578Z,70.87
2018-03-28T09:13:10.246Z,68.43
2018-03-28T09:15:38.758Z,69.20
2018-03-28T09:18:07.361Z,67.33
2018-03-28T09:20:35.949Z,66.90
2018-03-28T09:23:04.609Z,72.33
2018-03-28T09:25:33.079Z,62.83
2018-03-28T09:28:01.774Z,67.77
2018-03-28T09:30:30.269Z,64.97
2018-03-28T09:32:59.340Z,65.53
2018-03-28T09:35:27.806Z,64.83
2018-03-28T09:37:56.441Z,64.43
2018-03-28T09:40:24.953Z,64.47
2018-03-28T09:42:53.459Z,64.17
2018-03-28T09:45:22.234Z,63.53
2018-03-28T09:47:50.786Z,64.27
2018-03-28T09:50:19.526Z,62.93
2018-03-28T09:52:48.130Z,63.07
2018-03-28T09:55:16.669Z,66.20
2018-03-28T09:57:45.196Z,65.90
2018-03-28T10:00:19.806Z,63.53
2018-03-28T10:02:48.443Z,71.90
2018-03-28T10:05:16.915Z,68.73
2018-03-28T10:07:45.489Z,68.40
2018-03-28T10:10:13.959Z,65.73
2018-03-28T10:12:42.713Z,65.67
2018-03-28T10:15:11.238Z,67.90
2018-03-28T10:17:39.757Z,75.20
2018-03-28T10:20:08.406Z,69.93
2018-03-28T10:22:37.126Z,74.97
2018-03-28T10:25:05.637Z,75.30
2018-03-28T10:27:34.168Z,74.37
2018-03-28T10:30:02.721Z,74.97
2018-03-28T10:32:31.275Z,75.37
2018-03-28T10:34:59.754Z,70.93
2018-03-28T10:37:28.241Z,69.43
2018-03-28T10:39:56.952Z,66.93
2018-03-28T10:42:25.439Z,69.70
2018-03-28T10:44:54.176Z,71.60
2018-03-28T10:47:22.678Z,72.97
2018-03-28T10:49:51.186Z,71.33
2018-03-28T10:52:19.665Z,72.83
2018-03-28T10:54:48.216Z,76.10
2018-03-28T10:57:16.745Z,74.27
2018-03-28T10:59:45.406Z,74.57
2018-03-28T11:02:13.876Z,77.20
2018-03-28T11:04:42.411Z,75.27
2018-03-28T11:07:10.908Z,77.17
2018-03-28T11:09:39.871Z,78.37
2018-03-28T11:12:08.378Z,76.37
2018-03-28T11:14:36.996Z,75.47
2018-03-28T11:17:05.566Z,71.97
2018-03-28T11:19:34.398Z,75.10
2018-03-28T11:22:03.106Z,76.10
2018-03-28T11:24:31.840Z,78.20
2018-03-28T11:27:00.359Z,76.83
2018-03-28T11:29:28.939Z,73.37
2018-03-28T11:31:57.568Z,77.83
2018-03-28T11:34:26.050Z,71.20
2018-03-28T11:36:54.910Z,77.87
2018-03-28T11:39:23.421Z,81.10
2018-03-28T11:41:52.305Z,71.33
2018-03-28T11:44:20.838Z,62.80
2018-03-28T11:46:49.370Z,66.13
2018-03-28T11:49:17.879Z,66.23
2018-03-28T11:51:46.669Z,64.20
2018-03-28T11:54:15.285Z,66.10
2018-03-28T11:56:43.823Z,64.10
2018-03-28T11:59:12.355Z,63.90
2018-03-28T12:01:41.003Z,62.80
2018-03-28T12:04:09.519Z,55.73
2018-03-28T12:06:38.102Z,58.30
2018-03-28T12:09:06.575Z,54.93
2018-03-28T12:11:35.053Z,60.80
2018-03-28T12:14:03.614Z,57.43
2018-03-28T12:16:32.284Z,54.33
2018-03-28T12:19:00.773Z,53.93
2018-03-28T12:21:29.300Z,57.37
2018-03-28T12:23:57.939Z,57.60
2018-03-28T12:26:26.518Z,51.07
2018-03-28T12:28:55.046Z,46.80
2018-03-28T12:31:23.791Z,52.10
2018-03-28T12:33:52.309Z,52.67
2018-03-28T12:36:21.092Z,49.43
2018-03-28T12:38:49.848Z,52.10
2018-03-28T12:41:18.494Z,49.30
2018-03-28T12:43:47.009Z,50.07
2018-03-28T12:46:15.534Z,46.90
2018-03-28T12:48:45.915Z,54.00
2018-03-28T12:51:14.421Z,56.27
2018-03-28T12:53:42.971Z,53.03
2018-03-28T12:56:11.758Z,52.70
2018-03-28T12:58:40.327Z,56.67
2018-03-28T13:01:08.973Z,54.70
2018-03-28T13:03:37.526Z,56.97
2018-03-28T13:06:06.157Z,53.60
2018-03-28T13:08:34.640Z,55.80
2018-03-28T13:11:05.366Z,55.53
2018-03-28T13:13:33.972Z,59.33
2018-03-28T13:16:02.534Z,58.57
2018-03-28T13:18:31.284Z,57.33
2018-03-28T13:20:59.732Z,55.60
2018-03-28T13:23:28.189Z,58.47
2018-03-28T13:25:56.735Z,53.00
2018-03-28T13:28:25.222Z,53.90
2018-03-28T13:30:53.739Z,56.33
2018-03-28T13:33:22.373Z,56.60
2018-03-28T13:35:50.847Z,51.47
2018-03-28T13:38:20.274Z,53.70
2018-03-28T13:40:49.085Z,51.10
2018-03-28T13:43:17.570Z,51.97
2018-03-28T13:45:46.407Z,48.10
2018-03-28T13:48:15.010Z,50.17
2018-03-28T13:50:43.575Z,50.77
2018-03-28T13:53:12.062Z,48.37
2018-03-28T13:55:41.055Z,46.00
2018-03-28T13:58:09.757Z,46.33
2018-03-28T14:00:38.781Z,44.80
2018-03-28T14:03:07.695Z,44.10
2018-03-28T14:05:36.224Z,42.80
2018-03-28T14:08:04.749Z,42.17
2018-03-28T14:10:33.214Z,45.13
2018-03-28T14:13:01.761Z,48.33
2018-03-28T14:15:30.295Z,42.27
2018-03-28T14:17:58.882Z,45.77
2018-03-28T14:20:27.375Z,42.63
2018-03-28T14:22:56.044Z,44.50
2018-03-28T14:25:24.550Z,43.17
2018-03-28T14:27:53.013Z,43.47
2018-03-28T14:30:21.589Z,45.00
2018-03-28T14:32:50.105Z,42.93
2018-03-28T14:35:18.586Z,43.97
2018-03-28T14:37:47.237Z,44.50
2018-03-28T14:40:15.769Z,43.93
2018-03-28T14:42:54.587Z,43.53
2018-03-28T14:45:12.964Z,41.43
2018-03-28T14:47:41.466Z,42.87
2018-03-28T14:50:09.938Z,40.03
2018-03-28T14:52:38.494Z,41.33
2018-03-28T14:55:06.993Z,40.20
2018-03-28T14:57:35.857Z,40.40
2018-03-28T15:00:04.361Z,40.40
2018-03-28T15:02:32.872Z,38.73
2018-03-28T15:05:01.649Z,39.80
2018-03-28T15:07:30.252Z,40.03
2018-03-28T15:09:58.816Z,35.80
2018-03-28T15:12:27.489Z,39.00
2018-03-28T15:14:56.029Z,39.57
2018-03-28T15:17:24.629Z,39.20
2018-03-28T15:19:53.182Z,41.30
2018-03-28T15:22:21.833Z,41.00
2018-03-28T15:24:50.481Z,39.97
2018-03-28T15:27:18.961Z,41.13
2018-03-28T15:29:47.700Z,39.80
2018-03-28T15:32:16.182Z,37.87
2018-03-28T15:34:45.044Z,39.70
2018-03-28T15:37:13.686Z,37.80
2018-03-28T15:39:42.210Z,42.03
2018-03-28T15:42:11.022Z,40.20
2018-03-28T15:44:40.013Z,41.67
2018-03-28T15:47:08.588Z,39.47
2018-03-28T15:49:37.638Z,42.33
2018-03-28T15:52:06.183Z,41.93
2018-03-28T15:54:34.660Z,42.50
2018-03-28T15:57:03.134Z,42.00
2018-03-28T15:59:32.518Z,39.57
2018-03-28T16:02:00.993Z,41.40
2018-03-28T16:04:29.573Z,44.37
2018-03-28T16:06:58.089Z,40.57
2018-03-28T16:09:26.824Z,40.90
2018-03-28T16:11:55.293Z,43.20
2018-03-28T16:14:24.008Z,41.63
2018-03-28T16:16:52.466Z,42.50
2018-03-28T16:19:21.163Z,40.27
2018-03-28T16:21:49.745Z,41.30
2018-03-28T16:24:18.296Z,40.93
2018-03-28T16:26:46.755Z,45.70
2018-03-28T16:29:15.501Z,42.13
2018-03-28T16:31:43.953Z,41.63
2018-03-28T16:34:12.485Z,44.60
2018-03-28T16:36:41.066Z,40.40
2018-03-28T16:39:09.552Z,42.10
2018-03-28T16:41:39.698Z,43.10
2018-03-28T16:44:08.683Z,43.57
2018-03-28T16:46:37.239Z,42.30
2018-03-28T16:49:05.692Z,46.70
2018-03-28T16:51:34.279Z,46.57
2018-03-28T16:54:03.257Z,42.57
2018-03-28T16:56:31.804Z,42.40
2018-03-28T16:59:00.283Z,46.30
2018-03-28T17:01:28.749Z,43.83
2018-03-28T17:05:15.488Z,48.50
2018-03-28T17:07:43.953Z,45.00
2018-03-28T17:10:12.432Z,41.47
2018-03-28T17:12:40.870Z,42.60
2018-03-28T17:15:09.327Z,43.13
2018-03-28T17:17:37.780Z,44.80
2018-03-28T17:20:06.239Z,44.00
2018-03-28T17:22:34.676Z,43.53
2018-03-28T17:25:03.131Z,43.40
2018-03-28T17:27:31.587Z,42.83
2018-03-28T17:30:00.052Z,42.03
2018-03-28T17:32:28.892Z,44.57
2018-03-28T17:34:57.379Z,41.77
2018-03-28T17:37:25.844Z,44.10
2018-03-28T17:39:54.287Z,47.70
2018-03-28T17:42:23.218Z,45.10
2018-03-28T17:44:51.693Z,43.57
2018-03-28T17:47:20.141Z,46.37
2018-03-28T17:49:48.983Z,45.80
2018-03-28T17:52:17.431Z,46.30
2018-03-28T17:54:45.869Z,43.10
2018-03-28T17:57:14.308Z,43.07
2018-03-28T17:59:42.744Z,44.57
2018-03-28T18:02:11.594Z,44.03
2018-03-28T18:04:40.028Z,45.57
2018-03-28T18:07:08.870Z,48.33
2018-03-28T18:09:37.311Z,47.47
2018-03-28T18:12:05.813Z,49.30
2018-03-28T18:14:34.260Z,47.00
2018-03-28T18:17:02.716Z,46.40
2018-03-28T18:19:31.167Z,48.73
2018-03-28T18:21:59.622Z,47.83
2018-03-28T18:24:28.053Z,53.00
2018-03-28T18:26:56.551Z,48.97
2018-03-28T18:29:25.404Z,49.70
2018-03-28T18:31:53.896Z,50.77
2018-03-28T18:34:22.329Z,49.20
2018-03-28T18:36:50.782Z,46.57
2018-03-28T18:39:19.607Z,49.20
2018-03-28T18:41:48.052Z,50.97
2018-03-28T18:44:16.980Z,46.90
2018-03-28T18:46:45.442Z,50.27
2018-03-28T18:49:13.949Z,49.33
2018-03-28T18:51:42.446Z,52.70
2018-03-28T18:54:10.916Z,54.00
2018-03-28T18:56:39.397Z,50.40
2018-03-28T18:59:07.894Z,51.30
2018-03-28T19:01:36.349Z,56.97
2018-03-28T19:04:04.840Z,53.73
2018-03-28T19:06:33.320Z,54.87
2018-03-28T19:09:01.761Z,52.63
2018-03-28T19:11:30.595Z,52.03
2018-03-28T19:13:59.073Z,57.30
2018-03-28T19:16:27.521Z,56.77
2018-03-28T19:18:55.988Z,52.27
2018-03-28T19:21:24.831Z,58.73
2018-03-28T19:23:53.304Z,55.27
2018-03-28T19:26:21.749Z,55.63
2018-03-28T19:28:50.684Z,54.97
2018-03-28T19:31:19.170Z,54.00
2018-03-28T19:33:47.685Z,56.30
2018-03-28T19:36:16.568Z,57.27
2018-03-28T19:38:45.110Z,54.30
2018-03-28T19:41:13.553Z,56.87
2018-03-28T19:43:42.406Z,56.10
2018-03-28T19:46:10.889Z,60.20
2018-03-28T19:48:39.328Z,60.87
2018-03-28T19:51:07.789Z,59.17
2018-03-28T19:53:36.620Z,56.90
2018-03-28T19:56:05.095Z,57.83
2018-03-28T19:58:33.578Z,60.73
2018-03-28T20:01:02.240Z,58.03
2018-03-28T20:03:30.979Z,64.57
2018-03-28T20:05:59.463Z,69.00
2018-03-28T20:08:27.923Z,70.13
2018-03-28T20:10:56.391Z,74.00
2018-03-28T20:13:25.495Z,69.20
2018-03-28T20:15:53.966Z,72.03
2018-03-28T20:18:22.426Z,73.40
2018-03-28T20:20:50.939Z,71.27
2018-03-28T20:23:19.386Z,71.03
2018-03-28T20:25:48.706Z,77.33
2018-03-28T20:28:18.309Z,74.17
2018-03-28T20:30:47.483Z,76.37
2018-03-28T20:33:17.821Z,75.27
2018-03-28T20:35:47.882Z,80.90
2018-03-28T20:38:18.264Z,82.87
2018-03-28T20:40:47.712Z,81.67
2018-03-28T20:43:17.571Z,81.13
2018-03-28T20:45:49.448Z,78.67
2018-03-28T20:48:18.628Z,79.93
2018-03-28T20:50:52.338Z,84.67
2018-03-28T20:53:20.790Z,80.33
2018-03-28T20:55:49.270Z,78.10
2018-03-28T20:58:17.823Z,83.57
2018-03-28T21:00:46.342Z,79.67
2018-03-28T21:03:18.192Z,80.60
2018-03-28T21:05:46.704Z,87.67
2018-03-28T21:08:15.573Z,88.43
2018-03-28T21:10:44.031Z,87.37
2018-03-28T21:13:13.136Z,92.13
2018-03-28T21:15:41.599Z,89.20
2018-03-28T21:18:10.073Z,89.00
2018-03-28T21:20:39.061Z,85.80
2018-03-28T21:23:07.558Z,85.63
2018-03-28T21:25:36.031Z,89.07
2018-03-28T21:28:04.829Z,91.17
2018-03-28T21:30:33.538Z,82.93
2018-03-28T21:33:03.163Z,85.97
2018-03-28T21:35:33.945Z,83.40
2018-03-28T21:38:02.420Z,77.50
2018-03-28T21:40:31.106Z,74.20
2018-03-28T21:42:59.603Z,77.10
2018-03-28T21:45:28.077Z,75.33
2018-03-28T21:47:56.528Z,78.20
2018-03-28T21:50:25.317Z,83.30
2018-03-28T21:52:53.827Z,77.10
2018-03-28T21:55:22.390Z,78.40
2018-03-28T21:57:52.088Z,72.07
2018-03-28T22:00:20.546Z,75.70
2018-03-28T22:02:49.390Z,71.90
2018-03-28T22:05:17.876Z,68.57
2018-03-28T22:07:46.641Z,74.10
2018-03-28T22:10:15.813Z,67.50
2018-03-28T22:12:44.311Z,72.67
2018-03-28T22:15:15.409Z,74.63
2018-03-28T22:17:44.744Z,74.63
2018-03-28T22:20:15.018Z,76.47
2018-03-28T22:22:43.589Z,72.27
2018-03-28T22:25:12.076Z,70.80
2018-03-28T22:27:41.389Z,63.70
2018-03-28T22:30:10.023Z,69.17
2018-03-28T22:32:39.972Z,65.83
2018-03-28T22:35:08.617Z,62.80
2018-03-28T22:37:37.794Z,67.60
2018-03-28T22:40:07.425Z,67.47
2018-03-28T22:42:36.702Z,63.53
2018-03-28T22:45:05.441Z,66.93
2018-03-28T22:47:34.519Z,61.87
2018-03-28T22:50:04.022Z,61.07
2018-03-28T22:52:33.283Z,61.67
2018-03-28T22:55:02.715Z,63.17
2018-03-28T22:57:32.107Z,66.30
2018-03-28T23:00:02.565Z,66.27
2018-03-28T23:02:31.948Z,63.20
2018-03-28T23:05:02.604Z,67.77
2018-03-28T23:07:32.784Z,65.03
2018-03-28T23:10:03.759Z,67.33
2018-03-28T23:12:32.695Z,65.40
2018-03-28T23:15:01.299Z,65.03
2018-03-28T23:17:30.151Z,65.97
2018-03-28T23:19:58.628Z,61.90
2018-03-28T23:22:38.479Z,64.47
2018-03-28T23:25:06.934Z,62.23
2018-03-28T23:27:35.389Z,64.27
2018-03-28T23:30:03.866Z,68.20
2018-03-28T23:32:32.712Z,65.13
2018-03-28T23:35:01.223Z,63.57
2018-03-28T23:37:29.746Z,62.37
2018-03-28T23:39:58.301Z,63.63
2018-03-28T23:42:27.148Z,60.10
2018-03-28T23:44:55.598Z,61.20
2018-03-28T23:47:24.058Z,66.90
2018-03-28T23:49:52.911Z,61.97
2018-03-28T23:52:21.377Z,67.40
2018-03-28T23:54:49.934Z,60.77
2018-03-28T23:57:18.394Z,69.33
2018-03-28T23:59:47.294Z,65.23
